sensor_id;sensor_type;location;lat;lon;timestamp;pressure;altitude;pressure_sealevel;temperature;humidity
56142;BME280;42018;48.588;10.836;2022-09-25T00:00:10;96465.16;;;12.83;81.11
56142;BME280;42018;48.588;10.836;2022-09-25T00:02:55;96464.97;;;12.99;79.70
56142;BME280;42018;48.588;10.836;2022-09-25T00:05:43;96468.19;;;12.96;79.86
56142;BME280;42018;48.588;10.836;2022-09-25T00:08:29;96476.22;;;12.90;80.54
56142;BME280;42018;48.588;10.836;2022-09-25T00:14:02;96471.91;;;12.94;80.17
56142;BME280;42018;48.588;10.836;2022-09-25T00:16:47;96464.88;;;13.04;79.08
56142;BME280;42018;48.588;10.836;2022-09-25T00:19:32;96470.13;;;13.09;78.73
56142;BME280;42018;48.588;10.836;2022-09-25T00:22:36;96471.91;;;12.94;78.98
56142;BME280;42018;48.588;10.836;2022-09-25T00:25:22;96466.16;;;12.87;79.22
56142;BME280;42018;48.588;10.836;2022-09-25T00:28:11;96467.44;;;12.71;80.40
56142;BME280;42018;48.588;10.836;2022-09-25T00:30:57;96470.53;;;12.78;78.95
56142;BME280;42018;48.588;10.836;2022-09-25T00:33:42;96472.22;;;12.93;78.20
56142;BME280;42018;48.588;10.836;2022-09-25T00:36:28;96469.91;;;12.86;78.37
56142;BME280;42018;48.588;10.836;2022-09-25T00:39:13;96467.09;;;12.78;79.36
56142;BME280;42018;48.588;10.836;2022-09-25T00:41:59;96471.56;;;12.82;79.21
56142;BME280;42018;48.588;10.836;2022-09-25T00:50:50;96473.56;;;12.48;79.24
56142;BME280;42018;48.588;10.836;2022-09-25T00:53:39;96462.38;;;12.51;79.78
56142;BME280;42018;48.588;10.836;2022-09-25T00:56:25;96462.59;;;12.54;80.34
56142;BME280;42018;48.588;10.836;2022-09-25T00:59:17;96450.59;;;12.57;79.98
56142;BME280;42018;48.588;10.836;2022-09-25T01:02:05;96456.19;;;12.55;80.26
56142;BME280;42018;48.588;10.836;2022-09-25T01:04:52;96452.41;;;12.61;80.37
56142;BME280;42018;48.588;10.836;2022-09-25T01:07:43;96443.66;;;12.61;79.69
56142;BME280;42018;48.588;10.836;2022-09-25T01:10:29;96441.63;;;12.53;80.36
56142;BME280;42018;48.588;10.836;2022-09-25T01:13:15;96439.69;;;12.58;79.28
56142;BME280;42018;48.588;10.836;2022-09-25T01:23:21;96432.63;;;12.49;78.83
56142;BME280;42018;48.588;10.836;2022-09-25T01:25:56;96424.19;;;12.41;79.32
56142;BME280;42018;48.588;10.836;2022-09-25T01:32:06;96421.31;;;12.38;79.49
56142;BME280;42018;48.588;10.836;2022-09-25T01:38:12;96425.25;;;12.45;79.69
56142;BME280;42018;48.588;10.836;2022-09-25T01:44:04;96423.47;;;12.60;78.67
56142;BME280;42018;48.588;10.836;2022-09-25T01:46:53;96425.59;;;12.58;78.47
56142;BME280;42018;48.588;10.836;2022-09-25T01:49:46;96419.81;;;12.56;78.53
56142;BME280;42018;48.588;10.836;2022-09-25T01:52:43;96419.63;;;12.47;78.61
56142;BME280;42018;48.588;10.836;2022-09-25T01:55:34;96421.50;;;12.46;78.78
56142;BME280;42018;48.588;10.836;2022-09-25T01:58:37;96413.34;;;12.38;78.68
56142;BME280;42018;48.588;10.836;2022-09-25T02:01:34;96413.31;;;12.43;78.34
56142;BME280;42018;48.588;10.836;2022-09-25T02:04:27;96417.72;;;12.53;78.67
56142;BME280;42018;48.588;10.836;2022-09-25T02:07:18;96415.53;;;12.55;78.29
56142;BME280;42018;48.588;10.836;2022-09-25T02:10:20;96417.50;;;12.49;77.85
56142;BME280;42018;48.588;10.836;2022-09-25T02:13:11;96409.78;;;12.48;78.85
56142;BME280;42018;48.588;10.836;2022-09-25T02:16:02;96420.63;;;12.51;78.45
56142;BME280;42018;48.588;10.836;2022-09-25T02:18:49;96420.03;;;12.59;78.29
56142;BME280;42018;48.588;10.836;2022-09-25T02:22:07;96415.06;;;12.53;78.82
56142;BME280;42018;48.588;10.836;2022-09-25T02:27:47;96413.44;;;12.52;79.25
56142;BME280;42018;48.588;10.836;2022-09-25T02:30:33;96420.59;;;12.56;78.85
56142;BME280;42018;48.588;10.836;2022-09-25T02:33:18;96418.06;;;12.65;78.64
56142;BME280;42018;48.588;10.836;2022-09-25T02:36:04;96417.59;;;12.63;78.17
56142;BME280;42018;48.588;10.836;2022-09-25T02:38:52;96416.06;;;12.57;78.80
56142;BME280;42018;48.588;10.836;2022-09-25T02:48:15;96423.50;;;12.36;78.56
56142;BME280;42018;48.588;10.836;2022-09-25T02:51:52;96417.38;;;12.35;78.70
56142;BME280;42018;48.588;10.836;2022-09-25T02:54:46;96422.59;;;12.45;78.71
56142;BME280;42018;48.588;10.836;2022-09-25T03:00:37;96421.06;;;12.39;79.35
56142;BME280;42018;48.588;10.836;2022-09-25T03:03:25;96423.53;;;12.55;78.69
56142;BME280;42018;48.588;10.836;2022-09-25T03:06:11;96421.81;;;12.64;77.93
56142;BME280;42018;48.588;10.836;2022-09-25T03:08:58;96420.25;;;12.63;78.14
56142;BME280;42018;48.588;10.836;2022-09-25T03:11:44;96418.94;;;12.60;78.35
56142;BME280;42018;48.588;10.836;2022-09-25T03:14:31;96418.84;;;12.46;78.53
56142;BME280;42018;48.588;10.836;2022-09-25T03:17:16;96420.19;;;12.44;79.24
56142;BME280;42018;48.588;10.836;2022-09-25T03:20:02;96426.19;;;12.55;78.70
56142;BME280;42018;48.588;10.836;2022-09-25T03:22:47;96429.06;;;12.58;78.57
56142;BME280;42018;48.588;10.836;2022-09-25T03:25:33;96435.59;;;12.66;78.24
56142;BME280;42018;48.588;10.836;2022-09-25T03:28:18;96430.00;;;12.67;78.23
56142;BME280;42018;48.588;10.836;2022-09-25T03:31:06;96429.16;;;12.72;77.85
56142;BME280;42018;48.588;10.836;2022-09-25T03:33:52;96416.31;;;12.55;78.30
56142;BME280;42018;48.588;10.836;2022-09-25T03:36:37;96421.94;;;12.54;78.39
56142;BME280;42018;48.588;10.836;2022-09-25T03:39:23;96422.72;;;12.54;78.71
56142;BME280;42018;48.588;10.836;2022-09-25T03:42:08;96412.06;;;12.59;78.41
56142;BME280;42018;48.588;10.836;2022-09-25T03:44:53;96412.09;;;12.73;77.52
56142;BME280;42018;48.588;10.836;2022-09-25T03:47:39;96408.88;;;12.76;77.43
56142;BME280;42018;48.588;10.836;2022-09-25T03:50:24;96402.72;;;12.81;77.35
56142;BME280;42018;48.588;10.836;2022-09-25T03:53:09;96398.47;;;12.80;78.08
56142;BME280;42018;48.588;10.836;2022-09-25T03:55:55;96390.06;;;12.73;78.43
56142;BME280;42018;48.588;10.836;2022-09-25T03:58:41;96389.91;;;12.83;77.49
56142;BME280;42018;48.588;10.836;2022-09-25T04:01:27;96391.34;;;12.94;76.80
56142;BME280;42018;48.588;10.836;2022-09-25T04:04:12;96390.56;;;12.93;77.28
56142;BME280;42018;48.588;10.836;2022-09-25T04:06:58;96394.56;;;12.91;77.60
56142;BME280;42018;48.588;10.836;2022-09-25T04:09:44;96398.84;;;12.92;77.72
56142;BME280;42018;48.588;10.836;2022-09-25T04:12:30;96393.16;;;12.99;77.03
56142;BME280;42018;48.588;10.836;2022-09-25T04:15:15;96385.00;;;13.09;76.12
56142;BME280;42018;48.588;10.836;2022-09-25T04:18:00;96374.66;;;13.07;76.55
56142;BME280;42018;48.588;10.836;2022-09-25T04:20:46;96377.31;;;13.07;76.49
56142;BME280;42018;48.588;10.836;2022-09-25T04:23:31;96380.28;;;13.06;76.85
56142;BME280;42018;48.588;10.836;2022-09-25T04:26:17;96376.59;;;13.02;77.50
56142;BME280;42018;48.588;10.836;2022-09-25T04:29:02;96369.13;;;13.04;77.69
56142;BME280;42018;48.588;10.836;2022-09-25T04:31:47;96378.91;;;13.08;77.72
56142;BME280;42018;48.588;10.836;2022-09-25T04:34:53;96370.44;;;13.06;77.45
56142;BME280;42018;48.588;10.836;2022-09-25T04:37:38;96378.63;;;13.10;77.73
56142;BME280;42018;48.588;10.836;2022-09-25T04:40:23;96377.91;;;13.04;78.21
56142;BME280;42018;48.588;10.836;2022-09-25T04:43:09;96383.00;;;13.01;78.68
56142;BME280;42018;48.588;10.836;2022-09-25T04:45:54;96382.75;;;13.02;78.75
56142;BME280;42018;48.588;10.836;2022-09-25T04:48:43;96390.78;;;12.97;78.57
56142;BME280;42018;48.588;10.836;2022-09-25T04:51:29;96391.44;;;12.70;80.04
56142;BME280;42018;48.588;10.836;2022-09-25T04:54:14;96392.00;;;12.67;80.57
56142;BME280;42018;48.588;10.836;2022-09-25T04:57:02;96401.69;;;12.58;81.16
56142;BME280;42018;48.588;10.836;2022-09-25T04:59:47;96403.13;;;12.50;80.96
56142;BME280;42018;48.588;10.836;2022-09-25T05:02:35;96408.66;;;12.54;81.35
56142;BME280;42018;48.588;10.836;2022-09-25T05:05:20;96407.31;;;12.56;80.88
56142;BME280;42018;48.588;10.836;2022-09-25T05:08:06;96410.44;;;12.58;80.99
56142;BME280;42018;48.588;10.836;2022-09-25T05:10:51;96401.03;;;12.47;81.03
56142;BME280;42018;48.588;10.836;2022-09-25T05:13:37;96409.31;;;12.45;81.25
56142;BME280;42018;48.588;10.836;2022-09-25T05:16:22;96412.19;;;12.49;81.05
56142;BME280;42018;48.588;10.836;2022-09-25T05:19:08;96403.13;;;12.26;82.37
56142;BME280;42018;48.588;10.836;2022-09-25T05:21:53;96409.69;;;12.34;82.48
56142;BME280;42018;48.588;10.836;2022-09-25T05:24:39;96404.22;;;12.49;82.05
56142;BME280;42018;48.588;10.836;2022-09-25T05:27:24;96401.09;;;12.42;82.12
56142;BME280;42018;48.588;10.836;2022-09-25T05:30:10;96403.81;;;12.13;83.20
56142;BME280;42018;48.588;10.836;2022-09-25T05:32:56;96400.03;;;12.19;83.31
56142;BME280;42018;48.588;10.836;2022-09-25T05:35:45;96397.34;;;12.24;82.37
56142;BME280;42018;48.588;10.836;2022-09-25T05:38:31;96397.00;;;12.07;83.99
56142;BME280;42018;48.588;10.836;2022-09-25T05:41:17;96403.38;;;12.06;84.45
56142;BME280;42018;48.588;10.836;2022-09-25T05:44:03;96403.72;;;11.99;84.23
56142;BME280;42018;48.588;10.836;2022-09-25T05:46:50;96406.19;;;11.90;85.18
56142;BME280;42018;48.588;10.836;2022-09-25T05:49:36;96402.09;;;12.03;84.00
56142;BME280;42018;48.588;10.836;2022-09-25T05:52:21;96406.84;;;12.06;84.26
56142;BME280;42018;48.588;10.836;2022-09-25T05:55:07;96415.13;;;12.23;83.23
56142;BME280;42018;48.588;10.836;2022-09-25T05:58:01;96406.88;;;12.25;83.06
56142;BME280;42018;48.588;10.836;2022-09-25T06:00:47;96403.03;;;12.36;82.89
56142;BME280;42018;48.588;10.836;2022-09-25T06:03:33;96397.84;;;12.45;82.50
56142;BME280;42018;48.588;10.836;2022-09-25T06:06:18;96402.56;;;12.53;82.34
56142;BME280;42018;48.588;10.836;2022-09-25T06:09:07;96401.44;;;12.35;82.89
56142;BME280;42018;48.588;10.836;2022-09-25T06:11:52;96402.50;;;12.34;82.24
56142;BME280;42018;48.588;10.836;2022-09-25T06:14:37;96402.69;;;12.19;82.94
56142;BME280;42018;48.588;10.836;2022-09-25T06:17:25;96400.56;;;12.21;83.89
56142;BME280;42018;48.588;10.836;2022-09-25T06:20:10;96402.81;;;12.33;83.77
56142;BME280;42018;48.588;10.836;2022-09-25T06:22:57;96402.34;;;12.50;82.73
56142;BME280;42018;48.588;10.836;2022-09-25T06:25:42;96405.34;;;12.62;82.09
56142;BME280;42018;48.588;10.836;2022-09-25T06:28:28;96400.03;;;12.62;81.87
56142;BME280;42018;48.588;10.836;2022-09-25T06:31:15;96390.84;;;12.73;81.32
56142;BME280;42018;48.588;10.836;2022-09-25T06:34:00;96401.47;;;12.73;81.33
56142;BME280;42018;48.588;10.836;2022-09-25T06:36:46;96402.28;;;12.74;81.18
56142;BME280;42018;48.588;10.836;2022-09-25T06:39:31;96407.44;;;12.65;81.72
56142;BME280;42018;48.588;10.836;2022-09-25T06:42:18;96395.72;;;12.66;82.42
56142;BME280;42018;48.588;10.836;2022-09-25T06:45:03;96412.63;;;12.75;82.02
56142;BME280;42018;48.588;10.836;2022-09-25T06:47:49;96412.72;;;12.70;81.71
56142;BME280;42018;48.588;10.836;2022-09-25T06:50:53;96408.00;;;12.43;82.19
56142;BME280;42018;48.588;10.836;2022-09-25T06:53:39;96412.63;;;12.56;82.48
56142;BME280;42018;48.588;10.836;2022-09-25T06:56:24;96411.84;;;12.56;82.81
56142;BME280;42018;48.588;10.836;2022-09-25T06:59:09;96406.75;;;12.59;82.71
56142;BME280;42018;48.588;10.836;2022-09-25T07:01:55;96419.72;;;12.61;82.77
56142;BME280;42018;48.588;10.836;2022-09-25T07:05:00;96416.16;;;12.70;82.43
56142;BME280;42018;48.588;10.836;2022-09-25T07:07:46;96416.63;;;12.73;81.70
56142;BME280;42018;48.588;10.836;2022-09-25T07:10:31;96415.06;;;12.72;82.24
56142;BME280;42018;48.588;10.836;2022-09-25T07:13:18;96413.41;;;12.94;81.29
56142;BME280;42018;48.588;10.836;2022-09-25T07:16:11;96407.16;;;12.85;80.77
56142;BME280;42018;48.588;10.836;2022-09-25T07:18:57;96419.47;;;12.81;81.62
56142;BME280;42018;48.588;10.836;2022-09-25T07:21:45;96415.16;;;12.85;81.69
56142;BME280;42018;48.588;10.836;2022-09-25T07:24:30;96412.19;;;12.68;81.42
56142;BME280;42018;48.588;10.836;2022-09-25T07:27:16;96408.56;;;12.59;82.15
56142;BME280;42018;48.588;10.836;2022-09-25T07:30:03;96414.41;;;12.61;81.96
56142;BME280;42018;48.588;10.836;2022-09-25T07:32:48;96418.97;;;12.36;82.74
56142;BME280;42018;48.588;10.836;2022-09-25T07:35:34;96416.09;;;12.09;82.90
56142;BME280;42018;48.588;10.836;2022-09-25T07:38:20;96419.06;;;12.26;82.93
56142;BME280;42018;48.588;10.836;2022-09-25T07:41:09;96414.25;;;12.52;82.40
56142;BME280;42018;48.588;10.836;2022-09-25T07:43:56;96417.63;;;12.58;81.33
56142;BME280;42018;48.588;10.836;2022-09-25T07:46:42;96418.41;;;12.58;81.29
56142;BME280;42018;48.588;10.836;2022-09-25T07:49:30;96419.28;;;12.54;81.49
56142;BME280;42018;48.588;10.836;2022-09-25T07:52:38;96418.19;;;12.55;81.98
56142;BME280;42018;48.588;10.836;2022-09-25T07:55:35;96424.91;;;12.71;81.08
56142;BME280;42018;48.588;10.836;2022-09-25T07:58:21;96427.56;;;12.90;80.50
56142;BME280;42018;48.588;10.836;2022-09-25T08:01:09;96423.25;;;12.94;79.87
56142;BME280;42018;48.588;10.836;2022-09-25T08:03:55;96423.47;;;12.98;79.52
56142;BME280;42018;48.588;10.836;2022-09-25T08:06:40;96422.47;;;12.93;80.19
56142;BME280;42018;48.588;10.836;2022-09-25T08:09:26;96426.91;;;12.79;80.93
56142;BME280;42018;48.588;10.836;2022-09-25T08:12:12;96423.91;;;13.05;80.00
56142;BME280;42018;48.588;10.836;2022-09-25T08:14:57;96421.66;;;13.12;80.09
56142;BME280;42018;48.588;10.836;2022-09-25T08:17:43;96419.44;;;13.19;79.45
56142;BME280;42018;48.588;10.836;2022-09-25T08:20:28;96419.81;;;13.31;79.02
56142;BME280;42018;48.588;10.836;2022-09-25T08:23:13;96426.19;;;13.30;78.86
56142;BME280;42018;48.588;10.836;2022-09-25T08:25:59;96415.72;;;13.20;79.59
56142;BME280;42018;48.588;10.836;2022-09-25T08:28:46;96411.44;;;13.19;78.86
56142;BME280;42018;48.588;10.836;2022-09-25T08:31:31;96415.09;;;13.23;79.30
56142;BME280;42018;48.588;10.836;2022-09-25T08:34:17;96407.00;;;13.33;78.44
56142;BME280;42018;48.588;10.836;2022-09-25T08:37:02;96416.16;;;13.27;78.89
56142;BME280;42018;48.588;10.836;2022-09-25T08:39:48;96421.03;;;13.39;78.39
56142;BME280;42018;48.588;10.836;2022-09-25T08:42:35;96419.78;;;13.50;77.79
56142;BME280;42018;48.588;10.836;2022-09-25T08:45:31;96415.16;;;13.56;77.12
56142;BME280;42018;48.588;10.836;2022-09-25T08:48:56;96420.25;;;13.38;76.89
56142;BME280;42018;48.588;10.836;2022-09-25T08:51:54;96410.50;;;13.48;77.10
56142;BME280;42018;48.588;10.836;2022-09-25T08:54:43;96414.25;;;13.47;77.54
56142;BME280;42018;48.588;10.836;2022-09-25T08:57:30;96398.00;;;13.62;77.09
56142;BME280;42018;48.588;10.836;2022-09-25T09:00:22;96395.94;;;13.59;76.59
56142;BME280;42018;48.588;10.836;2022-09-25T09:03:09;96392.91;;;13.79;76.03
56142;BME280;42018;48.588;10.836;2022-09-25T09:06:02;96401.59;;;13.71;76.11
56142;BME280;42018;48.588;10.836;2022-09-25T09:09:06;96404.47;;;13.75;75.89
56142;BME280;42018;48.588;10.836;2022-09-25T09:11:57;96398.94;;;13.71;75.69
56142;BME280;42018;48.588;10.836;2022-09-25T09:14:51;96398.06;;;13.43;76.03
56142;BME280;42018;48.588;10.836;2022-09-25T09:17:41;96398.75;;;13.35;75.68
56142;BME280;42018;48.588;10.836;2022-09-25T09:20:42;96401.50;;;13.44;75.53
56142;BME280;42018;48.588;10.836;2022-09-25T09:23:39;96398.53;;;13.64;75.51
56142;BME280;42018;48.588;10.836;2022-09-25T09:30:09;96398.47;;;13.50;75.88
56142;BME280;42018;48.588;10.836;2022-09-25T09:42:03;96399.59;;;13.63;75.64
56142;BME280;42018;48.588;10.836;2022-09-25T09:48:30;96392.72;;;13.76;75.42
56142;BME280;42018;48.588;10.836;2022-09-25T09:51:21;96393.03;;;13.88;75.38
56142;BME280;42018;48.588;10.836;2022-09-25T09:54:39;96393.44;;;13.81;75.03
56142;BME280;42018;48.588;10.836;2022-09-25T09:57:29;96390.16;;;13.71;75.46
56142;BME280;42018;48.588;10.836;2022-09-25T10:00:19;96391.66;;;13.77;75.65
56142;BME280;42018;48.588;10.836;2022-09-25T10:03:29;96392.84;;;13.84;74.80
56142;BME280;42018;48.588;10.836;2022-09-25T10:06:17;96393.91;;;13.97;74.86
56142;BME280;42018;48.588;10.836;2022-09-25T10:09:02;96389.19;;;13.94;74.02
56142;BME280;42018;48.588;10.836;2022-09-25T10:11:58;96393.69;;;13.80;73.48
56142;BME280;42018;48.588;10.836;2022-09-25T10:14:45;96386.72;;;13.98;73.59
56142;BME280;42018;48.588;10.836;2022-09-25T10:17:32;96396.19;;;14.18;73.26
56142;BME280;42018;48.588;10.836;2022-09-25T10:20:23;96380.72;;;14.20;73.40
56142;BME280;42018;48.588;10.836;2022-09-25T10:23:23;96390.16;;;14.12;72.66
56142;BME280;42018;48.588;10.836;2022-09-25T10:32:02;96393.53;;;14.18;71.92
56142;BME280;42018;48.588;10.836;2022-09-25T10:34:51;96400.25;;;14.15;72.79
56142;BME280;42018;48.588;10.836;2022-09-25T10:37:37;96391.84;;;14.22;72.90
56142;BME280;42018;48.588;10.836;2022-09-25T10:43:20;96397.97;;;14.22;72.37
56142;BME280;42018;48.588;10.836;2022-09-25T10:46:13;96393.53;;;13.90;72.48
56142;BME280;42018;48.588;10.836;2022-09-25T10:49:15;96398.66;;;13.86;73.50
56142;BME280;42018;48.588;10.836;2022-09-25T10:52:20;96405.28;;;14.03;73.59
56142;BME280;42018;48.588;10.836;2022-09-25T10:55:19;96394.53;;;14.22;72.43
56142;BME280;42018;48.588;10.836;2022-09-25T10:58:21;96400.72;;;13.89;71.99
56142;BME280;42018;48.588;10.836;2022-09-25T11:01:11;96400.03;;;13.84;71.76
56142;BME280;42018;48.588;10.836;2022-09-25T11:03:58;96402.09;;;13.73;73.31
56142;BME280;42018;48.588;10.836;2022-09-25T11:06:49;96404.06;;;13.81;73.31
56142;BME280;42018;48.588;10.836;2022-09-25T11:09:42;96400.03;;;13.98;71.57
56142;BME280;42018;48.588;10.836;2022-09-25T11:12:28;96401.13;;;14.24;71.10
56142;BME280;42018;48.588;10.836;2022-09-25T11:15:17;96398.97;;;14.12;71.29
56142;BME280;42018;48.588;10.836;2022-09-25T11:18:04;96402.00;;;14.33;70.97
56142;BME280;42018;48.588;10.836;2022-09-25T11:21:00;96399.16;;;14.30;71.37
56142;BME280;42018;48.588;10.836;2022-09-25T11:24:20;96393.03;;;14.57;71.08
56142;BME280;42018;48.588;10.836;2022-09-25T11:27:29;96379.28;;;15.00;69.88
56142;BME280;42018;48.588;10.836;2022-09-25T11:30:19;96384.84;;;14.90;70.20
56142;BME280;42018;48.588;10.836;2022-09-25T11:36:38;96374.09;;;14.95;69.98
56142;BME280;42018;48.588;10.836;2022-09-25T11:39:47;96362.25;;;14.87;69.70
56142;BME280;42018;48.588;10.836;2022-09-25T11:43:07;96351.50;;;15.01;70.38
56142;BME280;42018;48.588;10.836;2022-09-25T11:45:58;96354.59;;;15.39;69.38
56142;BME280;42018;48.588;10.836;2022-09-25T11:48:54;96345.69;;;15.75;68.36
56142;BME280;42018;48.588;10.836;2022-09-25T11:58:09;96326.41;;;16.44;64.89
56142;BME280;42018;48.588;10.836;2022-09-25T12:04:34;96317.81;;;16.82;64.44
56142;BME280;42018;48.588;10.836;2022-09-25T12:10:56;96306.59;;;16.71;62.88
56142;BME280;42018;48.588;10.836;2022-09-25T12:23:31;96325.81;;;16.99;62.20
56142;BME280;42018;48.588;10.836;2022-09-25T12:26:20;96331.66;;;17.01;62.55
56142;BME280;42018;48.588;10.836;2022-09-25T12:32:02;96328.16;;;17.27;63.16
56142;BME280;42018;48.588;10.836;2022-09-25T12:35:14;96339.31;;;16.59;62.48
56142;BME280;42018;48.588;10.836;2022-09-25T12:38:07;96339.63;;;16.49;64.21
56142;BME280;42018;48.588;10.836;2022-09-25T12:41:12;96339.44;;;16.19;63.10
56142;BME280;42018;48.588;10.836;2022-09-25T12:47:41;96330.47;;;16.33;64.06
56142;BME280;42018;48.588;10.836;2022-09-25T12:50:56;96331.13;;;16.30;64.58
56142;BME280;42018;48.588;10.836;2022-09-25T12:53:42;96326.25;;;16.40;64.76
56142;BME280;42018;48.588;10.836;2022-09-25T12:56:39;96324.34;;;16.23;64.74
56142;BME280;42018;48.588;10.836;2022-09-25T13:00:04;96325.47;;;16.48;63.95
56142;BME280;42018;48.588;10.836;2022-09-25T13:02:59;96311.47;;;16.43;65.32
56142;BME280;42018;48.588;10.836;2022-09-25T13:05:49;96314.94;;;16.69;64.32
56142;BME280;42018;48.588;10.836;2022-09-25T13:08:58;96318.41;;;16.96;63.70
56142;BME280;42018;48.588;10.836;2022-09-25T13:12:04;96311.34;;;16.65;63.90
56142;BME280;42018;48.588;10.836;2022-09-25T13:15:02;96311.66;;;16.72;64.41
56142;BME280;42018;48.588;10.836;2022-09-25T13:17:48;96305.34;;;17.12;62.95
56142;BME280;42018;48.588;10.836;2022-09-25T13:26:09;96303.47;;;17.59;61.58
56142;BME280;42018;48.588;10.836;2022-09-25T13:28:58;96299.44;;;17.36;61.44
56142;BME280;42018;48.588;10.836;2022-09-25T13:31:45;96301.25;;;17.06;62.94
56142;BME280;42018;48.588;10.836;2022-09-25T13:34:39;96310.53;;;17.26;62.97
56142;BME280;42018;48.588;10.836;2022-09-25T13:37:28;96292.22;;;17.36;62.70
56142;BME280;42018;48.588;10.836;2022-09-25T13:40:19;96308.19;;;16.89;63.52
56142;BME280;42018;48.588;10.836;2022-09-25T13:43:26;96293.41;;;16.74;63.90
56142;BME280;42018;48.588;10.836;2022-09-25T13:49:42;96290.78;;;18.15;59.82
56142;BME280;42018;48.588;10.836;2022-09-25T13:52:30;96294.75;;;17.24;60.11
56142;BME280;42018;48.588;10.836;2022-09-25T13:55:16;96302.69;;;16.86;61.95
56142;BME280;42018;48.588;10.836;2022-09-25T13:58:21;96298.06;;;17.21;61.15
56142;BME280;42018;48.588;10.836;2022-09-25T14:01:13;96305.69;;;17.02;60.40
56142;BME280;42018;48.588;10.836;2022-09-25T14:04:26;96297.16;;;16.30;62.12
56142;BME280;42018;48.588;10.836;2022-09-25T14:07:17;96292.75;;;16.43;62.57
56142;BME280;42018;48.588;10.836;2022-09-25T14:10:08;96284.56;;;16.39;62.47
56142;BME280;42018;48.588;10.836;2022-09-25T14:12:55;96278.44;;;16.73;62.67
56142;BME280;42018;48.588;10.836;2022-09-25T14:15:41;96276.53;;;17.00;61.65
56142;BME280;42018;48.588;10.836;2022-09-25T14:18:37;96283.66;;;16.87;61.86
56142;BME280;42018;48.588;10.836;2022-09-25T14:21:24;96278.91;;;17.02;62.63
56142;BME280;42018;48.588;10.836;2022-09-25T14:24:18;96280.50;;;16.77;62.10
56142;BME280;42018;48.588;10.836;2022-09-25T14:27:17;96273.72;;;16.70;62.54
56142;BME280;42018;48.588;10.836;2022-09-25T14:30:06;96270.56;;;16.68;63.09
56142;BME280;42018;48.588;10.836;2022-09-25T14:33:16;96258.13;;;16.29;63.74
56142;BME280;42018;48.588;10.836;2022-09-25T14:39:12;96256.88;;;16.35;62.76
56142;BME280;42018;48.588;10.836;2022-09-25T14:48:36;96265.53;;;16.41;61.53
56142;BME280;42018;48.588;10.836;2022-09-25T14:51:29;96259.56;;;16.44;62.12
56142;BME280;42018;48.588;10.836;2022-09-25T14:54:24;96254.69;;;16.63;61.57
56142;BME280;42018;48.588;10.836;2022-09-25T14:57:19;96252.25;;;17.14;60.50
56142;BME280;42018;48.588;10.836;2022-09-25T15:00:15;96247.28;;;17.51;59.10
56142;BME280;42018;48.588;10.836;2022-09-25T15:03:01;96243.00;;;17.50;59.47
56142;BME280;42018;48.588;10.836;2022-09-25T15:05:48;96236.94;;;17.70;58.52
56142;BME280;42018;48.588;10.836;2022-09-25T15:08:39;96240.72;;;17.69;57.44
56142;BME280;42018;48.588;10.836;2022-09-25T15:11:26;96237.66;;;17.50;57.75
56142;BME280;42018;48.588;10.836;2022-09-25T15:14:16;96233.91;;;17.42;57.96
56142;BME280;42018;48.588;10.836;2022-09-25T15:17:06;96242.00;;;17.24;58.72
56142;BME280;42018;48.588;10.836;2022-09-25T15:20:11;96240.56;;;17.27;58.20
56142;BME280;42018;48.588;10.836;2022-09-25T15:23:04;96257.03;;;17.46;58.13
56142;BME280;42018;48.588;10.836;2022-09-25T15:25:53;96250.59;;;17.39;58.73
56142;BME280;42018;48.588;10.836;2022-09-25T15:28:39;96251.31;;;17.18;58.72
56142;BME280;42018;48.588;10.836;2022-09-25T15:31:25;96247.16;;;17.38;58.93
56142;BME280;42018;48.588;10.836;2022-09-25T15:34:12;96251.72;;;17.38;60.05
56142;BME280;42018;48.588;10.836;2022-09-25T15:37:30;96253.25;;;17.01;59.62
56142;BME280;42018;48.588;10.836;2022-09-25T15:43:01;96245.69;;;17.11;59.36
56142;BME280;42018;48.588;10.836;2022-09-25T15:45:57;96250.91;;;16.82;59.62
56142;BME280;42018;48.588;10.836;2022-09-25T15:48:59;96251.22;;;16.54;60.04
56142;BME280;42018;48.588;10.836;2022-09-25T15:51:49;96245.72;;;16.59;61.13
56142;BME280;42018;48.588;10.836;2022-09-25T15:54:37;96250.44;;;16.62;62.90
56142;BME280;42018;48.588;10.836;2022-09-25T15:57:27;96244.78;;;16.55;63.32
56142;BME280;42018;48.588;10.836;2022-09-25T16:00:19;96239.91;;;16.48;63.31
56142;BME280;42018;48.588;10.836;2022-09-25T16:03:25;96243.69;;;16.47;63.31
56142;BME280;42018;48.588;10.836;2022-09-25T16:06:37;96241.16;;;16.34;63.88
56142;BME280;42018;48.588;10.836;2022-09-25T16:09:32;96242.56;;;16.31;63.89
56142;BME280;42018;48.588;10.836;2022-09-25T16:18:23;96239.19;;;15.82;66.82
56142;BME280;42018;48.588;10.836;2022-09-25T16:21:18;96242.19;;;15.80;67.77
56142;BME280;42018;48.588;10.836;2022-09-25T16:24:06;96249.59;;;15.84;68.86
56142;BME280;42018;48.588;10.836;2022-09-25T16:27:02;96253.47;;;15.69;69.76
56142;BME280;42018;48.588;10.836;2022-09-25T16:29:48;96246.56;;;15.76;70.39
56142;BME280;42018;48.588;10.836;2022-09-25T16:32:34;96257.25;;;15.76;70.36
56142;BME280;42018;48.588;10.836;2022-09-25T16:35:36;96247.81;;;15.70;70.19
56142;BME280;42018;48.588;10.836;2022-09-25T16:38:33;96255.38;;;15.86;69.81
56142;BME280;42018;48.588;10.836;2022-09-25T16:41:21;96260.56;;;15.82;69.80
56142;BME280;42018;48.588;10.836;2022-09-25T16:44:19;96260.38;;;15.39;68.51
56142;BME280;42018;48.588;10.836;2022-09-25T16:47:17;96254.19;;;15.21;67.42
56142;BME280;42018;48.588;10.836;2022-09-25T16:50:04;96255.03;;;15.39;67.30
56142;BME280;42018;48.588;10.836;2022-09-25T16:52:49;96259.25;;;15.31;67.06
56142;BME280;42018;48.588;10.836;2022-09-25T16:55:43;96252.78;;;15.23;67.52